Hatsu Excel — VSXV3 — position and weather

sailwx.info

Track history (hours):
 
Tides and Currents Weather Stations Pressure Air Temp Water Temp Dewpoint Dewpoint Depression Visibility Wind Speed Wind Dir Waves Ship Positions

Hatsu Excel

Last reported at 2017-Jun-09 18:16 UTC. Time now 2017-Jun-26 15:34 UTC.
Position N 37°34' W 124°24'.
Warning: this ship's position is 16 days out of date.

Type: Ship (hazmat cat D). MMSI: 235479000.

Date/timePositionNaut miles runAvg speedWind from/ knotsBaromVisibWave heightAir tempDewpointWater temp
2017-Jun-09 18:16N 37°34' W 124°24'714.9
2017-Jun-09 17:48N 37°34' W 124°15'915.0
2017-Jun-09 17:10N 37°34' W 124°04'514.9
2017-Jun-09 16:52N 37°34' W 123°58'614.6
2017-Jun-09 16:27N 37°34' W 123°50'814.3
2017-Jun-09 15:54N 37°34' W 123°40'1014.5
2017-Jun-09 15:12N 37°34' W 123°28'314.3
2017-Jun-09 15:00N 37°34' W 123°24'714.2
2017-Jun-09 14:30N 37°34' W 123°15'1211.6
2017-Jun-09 13:30N 37°36' W 123°00'5 9.5
2017-Jun-09 13:01N 37°38' W 122°56'5 9.6
2017-Jun-09 12:30N 37°41' W 122°50'5 9.7
2017-Jun-09 12:00N 37°44' W 122°45'4 9.1
2017-Jun-09 11:31N 37°46' W 122°40'714.9
2017-Jun-09 11:01N 37°48' W 122°31'612.8
2017-Jun-09 10:31N 37°49' W 122°23'2 4.8
2017-Jun-09 09:59N 37°48' W 122°20'0 0.0
2017-Jun-09 09:29N 37°48' W 122°20'0 0.0
2017-Jun-09 08:59N 37°48' W 122°20'0 0.0
2017-Jun-09 08:29N 37°48' W 122°20'0 0.0
2017-Jun-09 07:59N 37°49' W 122°20'0 0.0
2017-Jun-09 07:29N 37°48' W 122°20'0 0.0
2017-Jun-09 06:59N 37°48' W 122°20'0 0.0
2017-Jun-09 06:29N 37°48' W 122°20'0 0.0
2017-Jun-09 05:59N 37°48' W 122°20'0 0.0
2017-Jun-09 05:30N 37°48' W 122°20'0 0.0
2017-Jun-09 04:59N 37°48' W 122°20'0 0.0
2017-Jun-09 04:29N 37°49' W 122°20'0 0.0
2017-Jun-09 04:00N 37°49' W 122°20'0 0.0
2017-Jun-09 03:31N 37°49' W 122°20'0 0.0
2017-Jun-09 03:01N 37°48' W 122°20'0 0.0
2017-Jun-09 02:30N 37°48' W 122°20'0 0.0
2017-Jun-09 02:01N 37°48' W 122°20'0 0.0
2017-Jun-09 01:31N 37°48' W 122°20'0 0.0
2017-Jun-09 01:01N 37°48' W 122°20'0 0.0
2017-Jun-09 00:31N 37°49' W 122°20'0 0.0
2017-Jun-09 00:01N 37°48' W 122°20'0 0.0
2017-Jun-08 23:31N 37°48' W 122°20'0 0.0
2017-Jun-08 23:01N 37°48' W 122°20'0 0.0
2017-Jun-08 22:30N 37°49' W 122°20'0 0.0
2017-Jun-08 22:00N 37°49' W 122°20'0 0.0
2017-Jun-08 21:31N 37°49' W 122°20'0 0.0
2017-Jun-08 21:01N 37°49' W 122°20'0 0.0
2017-Jun-08 20:30N 37°49' W 122°20'0 0.0
2017-Jun-08 20:00N 37°49' W 122°20'0 0.0
2017-Jun-08 19:30N 37°49' W 122°20'0 0.0
2017-Jun-08 19:00N 37°49' W 122°20'0 0.0
2017-Jun-08 18:30N 37°49' W 122°20'0 0.0
2017-Jun-08 18:01N 37°49' W 122°20'0 0.0
2017-Jun-08 17:30N 37°48' W 122°20'0 0.0
2017-Jun-08 17:01N 37°48' W 122°20'0 0.0
2017-Jun-08 16:30N 37°48' W 122°20'0 0.0
2017-Jun-08 16:00N 37°49' W 122°20'0 0.0
2017-Jun-08 15:30N 37°49' W 122°20'0 0.0
2017-Jun-08 15:00N 37°49' W 122°20'0 0.0
2017-Jun-08 14:30N 37°48' W 122°20'0 0.0
2017-Jun-08 13:31N 37°48' W 122°20'0 0.0
2017-Jun-08 13:00N 37°49' W 122°20'1 1.4
2017-Jun-08 12:30N 37°49' W 122°19'3 5.9
2017-Jun-08 12:00N 37°49' W 122°23'4 8.3
2017-Jun-08 11:30N 37°49' W 122°28'713.1
2017-Jun-08 11:00N 37°46' W 122°36'5 9.6
2017-Jun-08 10:30N 37°43' W 122°40'4 8.4
2017-Jun-08 10:00N 37°39' W 122°40'4 8.3
2017-Jun-08 09:30N 37°34' W 122°39'4 8.5
2017-Jun-08 09:00N 37°30' W 122°39'5 9.0
2017-Jun-08 08:30N 37°26' W 122°40'5 9.0
2017-Jun-08 08:00N 37°21' W 122°39'5 9.1
2017-Jun-08 07:30N 37°17' W 122°39'510.8
2017-Jun-08 07:00N 37°11' W 122°39'510.7
2017-Jun-08 06:30N 37°06' W 122°39'510.7
2017-Jun-08 06:00N 37°01' W 122°37'510.6
2017-Jun-08 05:30N 36°56' W 122°34'510.5
2017-Jun-08 05:00N 36°51' W 122°32'510.5
2017-Jun-08 04:30N 36°46' W 122°30'510.8
2017-Jun-08 04:00N 36°41' W 122°27'510.6
2017-Jun-08 03:30N 36°36' W 122°25'511.0
2017-Jun-08 03:00N 36°31' W 122°22'511.0
2017-Jun-08 02:30N 36°26' W 122°20'510.8
2017-Jun-08 02:00N 36°21' W 122°18'611.4
2017-Jun-08 01:30N 36°15' W 122°16'611.2
2017-Jun-08 01:00N 36°10' W 122°13'510.6
2017-Jun-08 00:30N 36°06' W 122°10'510.8
2017-Jun-08 00:00N 36°01' W 122°07'510.9
2017-Jun-07 23:30N 35°56' W 122°04'611.1
2017-Jun-07 23:00N 35°51' W 122°01'510.7
2017-Jun-07 22:30N 35°46' W 121°58'510.8
2017-Jun-07 22:00N 35°41' W 121°54'611.1
2017-Jun-07 21:30N 35°36' W 121°52'611.0
2017-Jun-07 21:00N 35°31' W 121°49'611.2
2017-Jun-07 20:30N 35°27' W 121°45'611.1
2017-Jun-07 20:00N 35°22' W 121°42'611.1
2017-Jun-07 19:30N 35°17' W 121°39'511.0
2017-Jun-07 19:00N 35°12' W 121°36'611.2
2017-Jun-07 18:31N 35°07' W 121°33'510.7
2017-Jun-07 18:00N 35°02' W 121°30'611.3
2017-Jun-07 17:30N 34°57' W 121°27'611.2
2017-Jun-07 17:00N 34°52' W 121°24'611.2
2017-Jun-07 16:30N 34°47' W 121°21'611.0
2017-Jun-07 16:00N 34°42' W 121°18'611.7
2017-Jun-07 15:30N 34°37' W 121°14'611.6
2017-Jun-07 15:00N 34°32' W 121°11'1111.2
2017-Jun-07 14:00N 34°28' W 120°59'611.6
2017-Jun-07 13:30N 34°26' W 120°52'611.8
2017-Jun-07 13:00N 34°25' W 120°45'611.7
2017-Jun-07 12:30N 34°23' W 120°38'611.8
2017-Jun-07 12:00N 34°21' W 120°31'611.6
2017-Jun-07 11:30N 34°20' W 120°24'611.8
2017-Jun-07 10:59N 34°18' W 120°17'612.2
2017-Jun-07 10:30N 34°17' W 120°10'612.2
2017-Jun-07 10:00N 34°15' W 120°03'611.9
2017-Jun-07 09:30N 34°14' W 119°56'611.1
2017-Jun-07 09:00N 34°12' W 119°50'611.6
2017-Jun-07 08:30N 34°11' W 119°43'611.3
2017-Jun-07 08:00N 34°09' W 119°37'611.5
2017-Jun-07 07:31N 34°08' W 119°30'611.2
2017-Jun-07 07:00N 34°06' W 119°23'611.9
2017-Jun-07 06:28N 34°04' W 119°16'611.7
2017-Jun-07 06:00N 34°02' W 119°10'611.7
2017-Jun-07 05:30N 33°59' W 119°04'611.5
2017-Jun-07 05:01N 33°56' W 118°58'611.6
2017-Jun-07 04:31N 33°53' W 118°52'611.5
2017-Jun-07 04:00N 33°50' W 118°46'611.2
2017-Jun-07 03:30N 33°48' W 118°40'611.5
2017-Jun-07 03:00N 33°45' W 118°34'611.6
2017-Jun-07 02:30N 33°42' W 118°28'611.8
2017-Jun-07 02:00N 33°39' W 118°22'510.4
2017-Jun-07 01:31N 33°40' W 118°16'3 7.0
2017-Jun-07 01:00N 33°43' W 118°16'2 2.6
2017-Jun-07 00:23N 33°45' W 118°16'0 0.0
2017-Jun-06 23:26N 33°45' W 118°16'0 0.0
2017-Jun-06 22:08N 33°45' W 118°16'0 0.0
2017-Jun-06 21:20N 33°45' W 118°16'0 0.0
2017-Jun-06 20:50N 33°45' W 118°16'0 0.0
2017-Jun-06 20:05N 33°45' W 118°16'0 0.0
2017-Jun-06 19:53N 33°45' W 118°16'0 0.0
2017-Jun-06 19:26N 33°45' W 118°16'0 0.0
2017-Jun-06 18:56N 33°45' W 118°16'0 0.0
2017-Jun-06 18:26N 33°45' W 118°16'0 0.0
2017-Jun-06 17:44N 33°45' W 118°16'0 0.0
2017-Jun-06 17:26N 33°45' W 118°16'0 0.0
2017-Jun-06 16:59N 33°45' W 118°16'0 0.0
2017-Jun-06 16:29N 33°45' W 118°16'0 0.0
2017-Jun-06 15:56N 33°45' W 118°16'0 0.0
2017-Jun-06 15:26N 33°45' W 118°16'0 0.0
2017-Jun-06 12:20N 33°45' W 118°16'0 0.0
2017-Jun-06 09:02N 33°45' W 118°16'0 0.0
2017-Jun-06 08:50N 33°45' W 118°16'0 0.0
2017-Jun-06 08:20N 33°45' W 118°16'0 0.0
2017-Jun-06 07:50N 33°45' W 118°16'0 0.0
2017-Jun-06 07:26N 33°45' W 118°16'0 0.0
2017-Jun-06 06:56N 33°45' W 118°16'0 0.0
2017-Jun-06 06:26N 33°45' W 118°16'0 0.0
2017-Jun-06 05:50N 33°45' W 118°16'0 0.0
2017-Jun-06 05:26N 33°45' W 118°16'0 0.0
2017-Jun-06 04:59N 33°45' W 118°16'0 0.0
2017-Jun-06 04:26N 33°45' W 118°16'0 0.0
2017-Jun-06 03:44N 33°45' W 118°16'0 0.0
2017-Jun-06 03:29N 33°45' W 118°16'0 0.0
2017-Jun-06 02:59N 33°45' W 118°16'0 0.0
2017-Jun-06 02:26N 33°45' W 118°16'0 0.0
2017-Jun-06 01:14N 33°45' W 118°16'0 0.0
2017-Jun-06 00:44N 33°45' W 118°16'0 0.0
2017-Jun-06 00:26N 33°45' W 118°16'0 0.0
2017-Jun-05 23:59N 33°45' W 118°16'0 0.0
2017-Jun-05 23:29N 33°45' W 118°16'0 0.0
2017-Jun-05 22:59N 33°45' W 118°16'0 0.0
2017-Jun-05 22:14N 33°45' W 118°16'0 0.0
2017-Jun-05 21:59N 33°45' W 118°16'0 0.0
2017-Jun-05 20:50N 33°45' W 118°16'0 0.0
2017-Jun-05 20:20N 33°45' W 118°16'0 0.0
2017-Jun-05 19:56N 33°45' W 118°16'0 0.0
2017-Jun-05 19:29N 33°45' W 118°16'0 0.0
2017-Jun-05 18:59N 33°45' W 118°16'0 0.0
2017-Jun-05 18:29N 33°45' W 118°16'0 0.0
2017-Jun-05 17:56N 33°45' W 118°16'0 0.0
2017-Jun-05 17:26N 33°45' W 118°16'0 0.0
2017-Jun-05 16:59N 33°45' W 118°16'0 0.0
2017-Jun-05 16:29N 33°45' W 118°16'0 0.0
2017-Jun-05 15:59N 33°45' W 118°16'0 0.0
2017-Jun-05 15:29N 33°45' W 118°16'0 0.0
2017-Jun-05 14:44N 33°45' W 118°16'0 0.0
2017-Jun-05 14:29N 33°45' W 118°16'0 0.0
2017-Jun-05 13:26N 33°45' W 118°16'0 0.0
2017-Jun-05 12:59N 33°45' W 118°16'0 0.0
2017-Jun-05 12:26N 33°45' W 118°16'0 0.0
2017-Jun-05 11:59N 33°45' W 118°16'0 0.0
2017-Jun-05 11:26N 33°45' W 118°16'0 0.0
2017-Jun-05 10:59N 33°45' W 118°16'0 0.0
2017-Jun-05 10:29N 33°45' W 118°16'0 0.0
2017-Jun-05 09:59N 33°45' W 118°16'0 0.0
2017-Jun-05 09:29N 33°45' W 118°16'0 0.0
2017-Jun-05 08:47N 33°45' W 118°16'0 0.0
2017-Jun-05 08:26N 33°45' W 118°16'0 0.0
2017-Jun-05 07:56N 33°45' W 118°16'0 0.0
2017-Jun-05 07:29N 33°45' W 118°16'0 0.0
2017-Jun-05 06:59N 33°45' W 118°16'0 0.0
2017-Jun-05 06:29N 33°45' W 118°16'0 0.0
2017-Jun-05 05:59N 33°45' W 118°16'0 0.0
2017-Jun-05 05:29N 33°45' W 118°16'0 0.0
2017-Jun-05 04:59N 33°45' W 118°16'0 0.0
2017-Jun-05 04:29N 33°45' W 118°16'0 0.0
2017-Jun-05 03:59N 33°45' W 118°16'0 0.0
2017-Jun-05 03:29N 33°45' W 118°16'0 0.0
2017-Jun-05 02:59N 33°45' W 118°16'0 0.0
2017-Jun-05 02:29N 33°45' W 118°16'0 0.0
2017-Jun-05 01:59N 33°45' W 118°16'0 0.0
2017-Jun-05 01:29N 33°45' W 118°16'0 0.0
2017-Jun-05 00:59N 33°45' W 118°16'0 0.0
2017-Jun-05 00:29N 33°45' W 118°16'0 0.0
2017-Jun-04 23:56N 33°45' W 118°16'0 0.0
2017-Jun-04 23:23N 33°45' W 118°16'0 0.0
2017-Jun-04 22:59N 33°45' W 118°16'0 0.0
2017-Jun-04 22:29N 33°45' W 118°16'0 0.0
2017-Jun-04 21:59N 33°45' W 118°16'0 0.0
2017-Jun-04 21:26N 33°45' W 118°16'0 0.0
2017-Jun-04 20:59N 33°45' W 118°16'0 0.0
2017-Jun-04 20:29N 33°45' W 118°16'0 0.0
2017-Jun-04 19:59N 33°45' W 118°16'0 0.0
2017-Jun-04 19:26N 33°45' W 118°16'0 0.0
2017-Jun-04 18:59N 33°45' W 118°16'0 0.0
2017-Jun-04 18:29N 33°45' W 118°16'0 0.0
2017-Jun-04 17:56N 33°45' W 118°16'0 0.0
2017-Jun-04 17:29N 33°45' W 118°16'0 0.0
2017-Jun-04 16:59N 33°45' W 118°16'0 0.0
2017-Jun-04 16:26N 33°45' W 118°16'0 0.0
2017-Jun-04 16:00N 33°45' W 118°16'0 0.0
2017-Jun-04 15:31N 33°45' W 118°16'0 0.0
2017-Jun-04 15:00N 33°45' W 118°16'0 0.0
2017-Jun-04 14:00N 33°45' W 118°16'0 0.0
2017-Jun-04 13:30N 33°45' W 118°16'0 0.0
2017-Jun-04 13:00N 33°45' W 118°16'0 0.0
2017-Jun-04 12:31N 33°45' W 118°16'0 0.0
2017-Jun-04 12:00N 33°45' W 118°16'0 0.5
2017-Jun-04 11:31N 33°45' W 118°16'2 4.2
2017-Jun-04 11:00N 33°43' W 118°16'4 8.9
2017-Jun-04 10:30N 33°39' W 118°13'4 8.7
2017-Jun-04 09:59N 33°36' W 118°17'510.1
2017-Jun-04 09:31N 33°36' W 118°23'510.2
2017-Jun-04 09:00N 33°36' W 118°29'511.0
2017-Jun-04 08:31N 33°37' W 118°36'611.1
2017-Jun-04 08:00N 33°37' W 118°43'611.0
2017-Jun-04 07:30N 33°37' W 118°49'611.0
2017-Jun-04 07:00N 33°38' W 118°56'611.0
2017-Jun-04 06:30N 33°38' W 119°02'611.2
2017-Jun-04 06:01N 33°38' W 119°09'611.6
2017-Jun-04 05:30N 33°39' W 119°16'611.0
2017-Jun-04 05:00N 33°39' W 119°23'612.9
2017-Jun-04 04:31N 33°40' W 119°30'917.8
2017-Jun-04 04:01N 33°40' W 119°41'918.1
2017-Jun-04 03:30N 33°41' W 119°52'918.1
2017-Jun-04 03:01N 33°41' W 120°03'917.6
2017-Jun-04 02:30N 33°42' W 120°13'917.5
2017-Jun-04 02:00N 33°42' W 120°24'917.2
2017-Jun-04 01:30N 33°42' W 120°34'917.7
2017-Jun-04 01:01N 33°42' W 120°45'917.9
2017-Jun-04 00:30N 33°42' W 120°56'917.4
2017-Jun-04 00:01N 33°42' W 121°06'918.0
2017-Jun-03 23:29N 33°42' W 121°17'918.4
2017-Jun-03 23:01N 33°42' W 121°28'918.4
2017-Jun-03 22:30N 33°42' W 121°39'1218.5
2017-Jun-03 21:50N 33°42' W 121°54'618.3
2017-Jun-03 21:30N 33°42' W 122°01'1018.6
2017-Jun-03 20:58N 33°42' W 122°13'818.0
2017-Jun-03 20:31N 33°42' W 122°23'917.9
2017-Jun-03 20:01N 33°42' W 122°34'918.0
2017-Jun-03 19:30N 33°42' W 122°45'918.1
2017-Jun-03 19:00N 33°42' W 122°55'917.8
2017-Jun-03 18:31N 33°42' W 123°06'918.1
2017-Jun-03 18:01N 33°42' W 123°17'918.0
2017-Jun-03 17:30N 33°42' W 123°28'918.1
2017-Jun-03 17:01N 33°42' W 123°39'1017.9
2017-Jun-03 16:28N 33°42' W 123°50'1017.9
2017-Jun-03 15:56N 33°42' W 124°02'817.9
2017-Jun-03 15:31N 33°42' W 124°11'1118.0
2017-Jun-03 14:53N 33°42' W 124°25'1618.0
2017-Jun-03 14:00N 33°46' W 124°43'1218.8
2017-Jun-03 13:23N 33°52' W 124°55'719.0
2017-Jun-03 13:01N 33°56' W 125°02'1019.0
2017-Jun-03 12:30N 34°01' W 125°12'1019.1
2017-Jun-03 12:00N 34°06' W 125°22'1019.0
2017-Jun-03 11:27N 34°11' W 125°32'1018.8
2017-Jun-03 10:55N 34°17' W 125°43'918.8
2017-Jun-03 10:27N 34°22' W 125°52'818.9
2017-Jun-03 10:01N 34°26' W 126°00'1019.2
2017-Jun-03 09:29N 34°31' W 126°11'919.2
2017-Jun-03 09:00N 34°36' W 126°20'1919.3
2017-Jun-03 08:00N 34°46' W 126°40'1719.2
2017-Jun-03 07:07N 34°55' W 126°58'219.1
2017-Jun-03 07:01N 34°56' W 127°00'1419.2
2017-Jun-03 06:16N 35°03' W 127°15'3819.2
2017-Jun-03 04:17N 35°23' W 127°55'  
Track history (hours):
 
Tides and Currents Weather Stations Pressure Air Temp Water Temp Dewpoint Dewpoint Depression Visibility Wind Speed Wind Dir Waves Ship Positions

Hatsu Excel

Last reported at 2017-Jun-09 18:16 UTC. Time now 2017-Jun-26 15:34 UTC.
Position N 37°34' W 124°24'.
Warning: this ship's position is 16 days out of date.

Type: Ship (hazmat cat D). MMSI: 235479000.

Date/timePositionNaut miles runAvg speedWind from/ knotsBaromVisibWave heightAir tempDewpointWater temp
2017-Jun-09 18:16N 37°34' W 124°24'714.9
2017-Jun-09 17:48N 37°34' W 124°15'915.0
2017-Jun-09 17:10N 37°34' W 124°04'514.9
2017-Jun-09 16:52N 37°34' W 123°58'614.6
2017-Jun-09 16:27N 37°34' W 123°50'814.3
2017-Jun-09 15:54N 37°34' W 123°40'1014.5
2017-Jun-09 15:12N 37°34' W 123°28'314.3
2017-Jun-09 15:00N 37°34' W 123°24'714.2
2017-Jun-09 14:30N 37°34' W 123°15'1211.6
2017-Jun-09 13:30N 37°36' W 123°00'5 9.5
2017-Jun-09 13:01N 37°38' W 122°56'5 9.6
2017-Jun-09 12:30N 37°41' W 122°50'5 9.7
2017-Jun-09 12:00N 37°44' W 122°45'4 9.1
2017-Jun-09 11:31N 37°46' W 122°40'714.9
2017-Jun-09 11:01N 37°48' W 122°31'612.8
2017-Jun-09 10:31N 37°49' W 122°23'2 4.8
2017-Jun-09 09:59N 37°48' W 122°20'0 0.0
2017-Jun-09 09:29N 37°48' W 122°20'0 0.0
2017-Jun-09 08:59N 37°48' W 122°20'0 0.0
2017-Jun-09 08:29N 37°48' W 122°20'0 0.0
2017-Jun-09 07:59N 37°49' W 122°20'0 0.0
2017-Jun-09 07:29N 37°48' W 122°20'0 0.0
2017-Jun-09 06:59N 37°48' W 122°20'0 0.0
2017-Jun-09 06:29N 37°48' W 122°20'0 0.0
2017-Jun-09 05:59N 37°48' W 122°20'0 0.0
2017-Jun-09 05:30N 37°48' W 122°20'0 0.0
2017-Jun-09 04:59N 37°48' W 122°20'0 0.0
2017-Jun-09 04:29N 37°49' W 122°20'0 0.0
2017-Jun-09 04:00N 37°49' W 122°20'0 0.0
2017-Jun-09 03:31N 37°49' W 122°20'0 0.0
2017-Jun-09 03:01N 37°48' W 122°20'0 0.0
2017-Jun-09 02:30N 37°48' W 122°20'0 0.0
2017-Jun-09 02:01N 37°48' W 122°20'0 0.0
2017-Jun-09 01:31N 37°48' W 122°20'0 0.0
2017-Jun-09 01:01N 37°48' W 122°20'0 0.0
2017-Jun-09 00:31N 37°49' W 122°20'0 0.0
2017-Jun-09 00:01N 37°48' W 122°20'0 0.0
2017-Jun-08 23:31N 37°48' W 122°20'0 0.0
2017-Jun-08 23:01N 37°48' W 122°20'0 0.0
2017-Jun-08 22:30N 37°49' W 122°20'0 0.0
2017-Jun-08 22:00N 37°49' W 122°20'0 0.0
2017-Jun-08 21:31N 37°49' W 122°20'0 0.0
2017-Jun-08 21:01N 37°49' W 122°20'0 0.0
2017-Jun-08 20:30N 37°49' W 122°20'0 0.0
2017-Jun-08 20:00N 37°49' W 122°20'0 0.0
2017-Jun-08 19:30N 37°49' W 122°20'0 0.0
2017-Jun-08 19:00N 37°49' W 122°20'0 0.0
2017-Jun-08 18:30N 37°49' W 122°20'0 0.0
2017-Jun-08 18:01N 37°49' W 122°20'0 0.0
2017-Jun-08 17:30N 37°48' W 122°20'0 0.0
2017-Jun-08 17:01N 37°48' W 122°20'0 0.0
2017-Jun-08 16:30N 37°48' W 122°20'0 0.0
2017-Jun-08 16:00N 37°49' W 122°20'0 0.0
2017-Jun-08 15:30N 37°49' W 122°20'0 0.0
2017-Jun-08 15:00N 37°49' W 122°20'0 0.0
2017-Jun-08 14:30N 37°48' W 122°20'0 0.0
2017-Jun-08 13:31N 37°48' W 122°20'0 0.0
2017-Jun-08 13:00N 37°49' W 122°20'1 1.4
2017-Jun-08 12:30N 37°49' W 122°19'3 5.9
2017-Jun-08 12:00N 37°49' W 122°23'4 8.3
2017-Jun-08 11:30N 37°49' W 122°28'713.1
2017-Jun-08 11:00N 37°46' W 122°36'5 9.6
2017-Jun-08 10:30N 37°43' W 122°40'4 8.4
2017-Jun-08 10:00N 37°39' W 122°40'4 8.3
2017-Jun-08 09:30N 37°34' W 122°39'4 8.5
2017-Jun-08 09:00N 37°30' W 122°39'5 9.0
2017-Jun-08 08:30N 37°26' W 122°40'5 9.0
2017-Jun-08 08:00N 37°21' W 122°39'5 9.1
2017-Jun-08 07:30N 37°17' W 122°39'510.8
2017-Jun-08 07:00N 37°11' W 122°39'510.7
2017-Jun-08 06:30N 37°06' W 122°39'510.7
2017-Jun-08 06:00N 37°01' W 122°37'510.6
2017-Jun-08 05:30N 36°56' W 122°34'510.5
2017-Jun-08 05:00N 36°51' W 122°32'510.5
2017-Jun-08 04:30N 36°46' W 122°30'510.8
2017-Jun-08 04:00N 36°41' W 122°27'510.6
2017-Jun-08 03:30N 36°36' W 122°25'511.0
2017-Jun-08 03:00N 36°31' W 122°22'511.0
2017-Jun-08 02:30N 36°26' W 122°20'510.8
2017-Jun-08 02:00N 36°21' W 122°18'611.4
2017-Jun-08 01:30N 36°15' W 122°16'611.2
2017-Jun-08 01:00N 36°10' W 122°13'510.6
2017-Jun-08 00:30N 36°06' W 122°10'510.8
2017-Jun-08 00:00N 36°01' W 122°07'510.9
2017-Jun-07 23:30N 35°56' W 122°04'611.1
2017-Jun-07 23:00N 35°51' W 122°01'510.7
2017-Jun-07 22:30N 35°46' W 121°58'510.8
2017-Jun-07 22:00N 35°41' W 121°54'611.1
2017-Jun-07 21:30N 35°36' W 121°52'611.0
2017-Jun-07 21:00N 35°31' W 121°49'611.2
2017-Jun-07 20:30N 35°27' W 121°45'611.1
2017-Jun-07 20:00N 35°22' W 121°42'611.1
2017-Jun-07 19:30N 35°17' W 121°39'511.0
2017-Jun-07 19:00N 35°12' W 121°36'611.2
2017-Jun-07 18:31N 35°07' W 121°33'510.7
2017-Jun-07 18:00N 35°02' W 121°30'611.3
2017-Jun-07 17:30N 34°57' W 121°27'611.2
2017-Jun-07 17:00N 34°52' W 121°24'611.2
2017-Jun-07 16:30N 34°47' W 121°21'611.0
2017-Jun-07 16:00N 34°42' W 121°18'611.7
2017-Jun-07 15:30N 34°37' W 121°14'611.6
2017-Jun-07 15:00N 34°32' W 121°11'1111.2
2017-Jun-07 14:00N 34°28' W 120°59'611.6
2017-Jun-07 13:30N 34°26' W 120°52'611.8
2017-Jun-07 13:00N 34°25' W 120°45'611.7
2017-Jun-07 12:30N 34°23' W 120°38'611.8
2017-Jun-07 12:00N 34°21' W 120°31'611.6
2017-Jun-07 11:30N 34°20' W 120°24'611.8
2017-Jun-07 10:59N 34°18' W 120°17'612.2
2017-Jun-07 10:30N 34°17' W 120°10'612.2
2017-Jun-07 10:00N 34°15' W 120°03'611.9
2017-Jun-07 09:30N 34°14' W 119°56'611.1
2017-Jun-07 09:00N 34°12' W 119°50'611.6
2017-Jun-07 08:30N 34°11' W 119°43'611.3
2017-Jun-07 08:00N 34°09' W 119°37'611.5
2017-Jun-07 07:31N 34°08' W 119°30'611.2
2017-Jun-07 07:00N 34°06' W 119°23'611.9
2017-Jun-07 06:28N 34°04' W 119°16'611.7
2017-Jun-07 06:00N 34°02' W 119°10'611.7
2017-Jun-07 05:30N 33°59' W 119°04'611.5
2017-Jun-07 05:01N 33°56' W 118°58'611.6
2017-Jun-07 04:31N 33°53' W 118°52'611.5
2017-Jun-07 04:00N 33°50' W 118°46'611.2
2017-Jun-07 03:30N 33°48' W 118°40'611.5
2017-Jun-07 03:00N 33°45' W 118°34'611.6
2017-Jun-07 02:30N 33°42' W 118°28'611.8
2017-Jun-07 02:00N 33°39' W 118°22'510.4
2017-Jun-07 01:31N 33°40' W 118°16'3 7.0
2017-Jun-07 01:00N 33°43' W 118°16'2 2.6
2017-Jun-07 00:23N 33°45' W 118°16'0 0.0
2017-Jun-06 23:26N 33°45' W 118°16'0 0.0
2017-Jun-06 22:08N 33°45' W 118°16'0 0.0
2017-Jun-06 21:20N 33°45' W 118°16'0 0.0
2017-Jun-06 20:50N 33°45' W 118°16'0 0.0
2017-Jun-06 20:05N 33°45' W 118°16'0 0.0
2017-Jun-06 19:53N 33°45' W 118°16'0 0.0
2017-Jun-06 19:26N 33°45' W 118°16'0 0.0
2017-Jun-06 18:56N 33°45' W 118°16'0 0.0
2017-Jun-06 18:26N 33°45' W 118°16'0 0.0
2017-Jun-06 17:44N 33°45' W 118°16'0 0.0
2017-Jun-06 17:26N 33°45' W 118°16'0 0.0
2017-Jun-06 16:59N 33°45' W 118°16'0 0.0
2017-Jun-06 16:29N 33°45' W 118°16'0 0.0
2017-Jun-06 15:56N 33°45' W 118°16'0 0.0
2017-Jun-06 15:26N 33°45' W 118°16'0 0.0
2017-Jun-06 12:20N 33°45' W 118°16'0 0.0
2017-Jun-06 09:02N 33°45' W 118°16'0 0.0
2017-Jun-06 08:50N 33°45' W 118°16'0 0.0
2017-Jun-06 08:20N 33°45' W 118°16'0 0.0
2017-Jun-06 07:50N 33°45' W 118°16'0 0.0
2017-Jun-06 07:26N 33°45' W 118°16'0 0.0
2017-Jun-06 06:56N 33°45' W 118°16'0 0.0
2017-Jun-06 06:26N 33°45' W 118°16'0 0.0
2017-Jun-06 05:50N 33°45' W 118°16'0 0.0
2017-Jun-06 05:26N 33°45' W 118°16'0 0.0
2017-Jun-06 04:59N 33°45' W 118°16'0 0.0
2017-Jun-06 04:26N 33°45' W 118°16'0 0.0
2017-Jun-06 03:44N 33°45' W 118°16'0 0.0
2017-Jun-06 03:29N 33°45' W 118°16'0 0.0
2017-Jun-06 02:59N 33°45' W 118°16'0 0.0
2017-Jun-06 02:26N 33°45' W 118°16'0 0.0
2017-Jun-06 01:14N 33°45' W 118°16'0 0.0
2017-Jun-06 00:44N 33°45' W 118°16'0 0.0
2017-Jun-06 00:26N 33°45' W 118°16'0 0.0
2017-Jun-05 23:59N 33°45' W 118°16'0 0.0
2017-Jun-05 23:29N 33°45' W 118°16'0 0.0
2017-Jun-05 22:59N 33°45' W 118°16'0 0.0
2017-Jun-05 22:14N 33°45' W 118°16'0 0.0
2017-Jun-05 21:59N 33°45' W 118°16'0 0.0
2017-Jun-05 20:50N 33°45' W 118°16'0 0.0
2017-Jun-05 20:20N 33°45' W 118°16'0 0.0
2017-Jun-05 19:56N 33°45' W 118°16'0 0.0
2017-Jun-05 19:29N 33°45' W 118°16'0 0.0
2017-Jun-05 18:59N 33°45' W 118°16'0 0.0
2017-Jun-05 18:29N 33°45' W 118°16'0 0.0
2017-Jun-05 17:56N 33°45' W 118°16'0 0.0
2017-Jun-05 17:26N 33°45' W 118°16'0 0.0
2017-Jun-05 16:59N 33°45' W 118°16'0 0.0
2017-Jun-05 16:29N 33°45' W 118°16'0 0.0
2017-Jun-05 15:59N 33°45' W 118°16'0 0.0
2017-Jun-05 15:29N 33°45' W 118°16'0 0.0
2017-Jun-05 14:44N 33°45' W 118°16'0 0.0
2017-Jun-05 14:29N 33°45' W 118°16'0 0.0
2017-Jun-05 13:26N 33°45' W 118°16'0 0.0
2017-Jun-05 12:59N 33°45' W 118°16'0 0.0
2017-Jun-05 12:26N 33°45' W 118°16'0 0.0
2017-Jun-05 11:59N 33°45' W 118°16'0 0.0
2017-Jun-05 11:26N 33°45' W 118°16'0 0.0
2017-Jun-05 10:59N 33°45' W 118°16'0 0.0
2017-Jun-05 10:29N 33°45' W 118°16'0 0.0
2017-Jun-05 09:59N 33°45' W 118°16'0 0.0
2017-Jun-05 09:29N 33°45' W 118°16'0 0.0
2017-Jun-05 08:47N 33°45' W 118°16'0 0.0
2017-Jun-05 08:26N 33°45' W 118°16'0 0.0
2017-Jun-05 07:56N 33°45' W 118°16'0 0.0
2017-Jun-05 07:29N 33°45' W 118°16'0 0.0
2017-Jun-05 06:59N 33°45' W 118°16'0 0.0
2017-Jun-05 06:29N 33°45' W 118°16'0 0.0
2017-Jun-05 05:59N 33°45' W 118°16'0 0.0
2017-Jun-05 05:29N 33°45' W 118°16'0 0.0
2017-Jun-05 04:59N 33°45' W 118°16'0 0.0
2017-Jun-05 04:29N 33°45' W 118°16'0 0.0
2017-Jun-05 03:59N 33°45' W 118°16'0 0.0
2017-Jun-05 03:29N 33°45' W 118°16'0 0.0
2017-Jun-05 02:59N 33°45' W 118°16'0 0.0
2017-Jun-05 02:29N 33°45' W 118°16'0 0.0
2017-Jun-05 01:59N 33°45' W 118°16'0 0.0
2017-Jun-05 01:29N 33°45' W 118°16'0 0.0
2017-Jun-05 00:59N 33°45' W 118°16'0 0.0
2017-Jun-05 00:29N 33°45' W 118°16'0 0.0
2017-Jun-04 23:56N 33°45' W 118°16'0 0.0
2017-Jun-04 23:23N 33°45' W 118°16'0 0.0
2017-Jun-04 22:59N 33°45' W 118°16'0 0.0
2017-Jun-04 22:29N 33°45' W 118°16'0 0.0
2017-Jun-04 21:59N 33°45' W 118°16'0 0.0
2017-Jun-04 21:26N 33°45' W 118°16'0 0.0
2017-Jun-04 20:59N 33°45' W 118°16'0 0.0
2017-Jun-04 20:29N 33°45' W 118°16'0 0.0
2017-Jun-04 19:59N 33°45' W 118°16'0 0.0
2017-Jun-04 19:26N 33°45' W 118°16'0 0.0
2017-Jun-04 18:59N 33°45' W 118°16'0 0.0
2017-Jun-04 18:29N 33°45' W 118°16'0 0.0
2017-Jun-04 17:56N 33°45' W 118°16'0 0.0
2017-Jun-04 17:29N 33°45' W 118°16'0 0.0
2017-Jun-04 16:59N 33°45' W 118°16'0 0.0
2017-Jun-04 16:26N 33°45' W 118°16'0 0.0
2017-Jun-04 16:00N 33°45' W 118°16'0 0.0
2017-Jun-04 15:31N 33°45' W 118°16'0 0.0
2017-Jun-04 15:00N 33°45' W 118°16'0 0.0
2017-Jun-04 14:00N 33°45' W 118°16'0 0.0
2017-Jun-04 13:30N 33°45' W 118°16'0 0.0
2017-Jun-04 13:00N 33°45' W 118°16'0 0.0
2017-Jun-04 12:31N 33°45' W 118°16'0 0.0
2017-Jun-04 12:00N 33°45' W 118°16'0 0.5
2017-Jun-04 11:31N 33°45' W 118°16'2 4.2
2017-Jun-04 11:00N 33°43' W 118°16'4 8.9
2017-Jun-04 10:30N 33°39' W 118°13'4 8.7
2017-Jun-04 09:59N 33°36' W 118°17'510.1
2017-Jun-04 09:31N 33°36' W 118°23'510.2
2017-Jun-04 09:00N 33°36' W 118°29'511.0
2017-Jun-04 08:31N 33°37' W 118°36'611.1
2017-Jun-04 08:00N 33°37' W 118°43'611.0
2017-Jun-04 07:30N 33°37' W 118°49'611.0
2017-Jun-04 07:00N 33°38' W 118°56'611.0
2017-Jun-04 06:30N 33°38' W 119°02'611.2
2017-Jun-04 06:01N 33°38' W 119°09'611.6
2017-Jun-04 05:30N 33°39' W 119°16'611.0
2017-Jun-04 05:00N 33°39' W 119°23'612.9
2017-Jun-04 04:31N 33°40' W 119°30'917.8
2017-Jun-04 04:01N 33°40' W 119°41'918.1
2017-Jun-04 03:30N 33°41' W 119°52'918.1
2017-Jun-04 03:01N 33°41' W 120°03'917.6
2017-Jun-04 02:30N 33°42' W 120°13'917.5
2017-Jun-04 02:00N 33°42' W 120°24'917.2
2017-Jun-04 01:30N 33°42' W 120°34'917.7
2017-Jun-04 01:01N 33°42' W 120°45'917.9
2017-Jun-04 00:30N 33°42' W 120°56'917.4
2017-Jun-04 00:01N 33°42' W 121°06'918.0
2017-Jun-03 23:29N 33°42' W 121°17'918.4
2017-Jun-03 23:01N 33°42' W 121°28'918.4
2017-Jun-03 22:30N 33°42' W 121°39'1218.5
2017-Jun-03 21:50N 33°42' W 121°54'618.3
2017-Jun-03 21:30N 33°42' W 122°01'1018.6
2017-Jun-03 20:58N 33°42' W 122°13'818.0
2017-Jun-03 20:31N 33°42' W 122°23'917.9
2017-Jun-03 20:01N 33°42' W 122°34'918.0
2017-Jun-03 19:30N 33°42' W 122°45'918.1
2017-Jun-03 19:00N 33°42' W 122°55'917.8
2017-Jun-03 18:31N 33°42' W 123°06'918.1
2017-Jun-03 18:01N 33°42' W 123°17'918.0
2017-Jun-03 17:30N 33°42' W 123°28'918.1
2017-Jun-03 17:01N 33°42' W 123°39'1017.9
2017-Jun-03 16:28N 33°42' W 123°50'1017.9
2017-Jun-03 15:56N 33°42' W 124°02'817.9
2017-Jun-03 15:31N 33°42' W 124°11'1118.0
2017-Jun-03 14:53N 33°42' W 124°25'1618.0
2017-Jun-03 14:00N 33°46' W 124°43'1218.8
2017-Jun-03 13:23N 33°52' W 124°55'719.0
2017-Jun-03 13:01N 33°56' W 125°02'1019.0
2017-Jun-03 12:30N 34°01' W 125°12'1019.1
2017-Jun-03 12:00N 34°06' W 125°22'1019.0
2017-Jun-03 11:27N 34°11' W 125°32'1018.8
2017-Jun-03 10:55N 34°17' W 125°43'918.8
2017-Jun-03 10:27N 34°22' W 125°52'818.9
2017-Jun-03 10:01N 34°26' W 126°00'1019.2
2017-Jun-03 09:29N 34°31' W 126°11'919.2
2017-Jun-03 09:00N 34°36' W 126°20'1919.3
2017-Jun-03 08:00N 34°46' W 126°40'1719.2
2017-Jun-03 07:07N 34°55' W 126°58'219.1
2017-Jun-03 07:01N 34°56' W 127°00'1419.2
2017-Jun-03 06:16N 35°03' W 127°15'3819.2
2017-Jun-03 04:17N 35°23' W 127°55'  

Dump ship's entire track history